This is the latest recevied weather packets stored in our database for station/object IZ2XCK-13. If no packets are shown the sender has not sent any weather packets the latest 10 day(s).
| Time | Temp. | Humidity | Pressure | Rain* | Wind** | Luminosity | Snow |
|---|---|---|---|---|---|---|---|
| 1777391064 | 18.33° C | 58% | 1016.3 hPa | - | - | - | - |
| 1777389863 | 18.33° C | 64% | 1016.3 hPa | - | - | - | - |
| 1777388663 | 18.89° C | 55% | 1016.5 hPa | - | - | - | - |
| 1777387463 | 18.33° C | 58% | 1016.7 hPa | - | - | - | - |
| 1777386262 | 17.78° C | 62% | 1016.8 hPa | - | - | - | - |
| 1777385062 | 18.33° C | 61% | 1017 hPa | - | - | - | - |
| 1777383862 | 18.89° C | 59% | 1017.3 hPa | - | - | - | - |
| 1777382661 | 18.33° C | 58% | 1017.5 hPa | - | - | - | - |
| 1777381461 | 17.78° C | 68% | 1017.9 hPa | - | - | - | - |
| 1777380261 | 16.67° C | 67% | 1018.3 hPa | - | - | - | - |
| 1777379060 | 16.11° C | 72% | 1018.4 hPa | - | - | - | - |
| 1777377860 | 15.56° C | 79% | 1018.6 hPa | - | - | - | - |
| 1777376660 | 15.56° C | 81% | 1018.8 hPa | - | - | - | - |
| 1777375460 | 15° C | 79% | 1019 hPa | - | - | - | - |
| 1777374259 | 15° C | 74% | 1019.4 hPa | - | - | - | - |
| 1777373059 | 15.56° C | 83% | 1019.6 hPa | - | - | - | - |
| 1777371859 | 15.56° C | 85% | 1019.7 hPa | - | - | - | - |
| 1777370658 | 15.56° C | 87% | 1019.8 hPa | - | - | - | - |
| 1777369458 | 16.11° C | 78% | 1019.9 hPa | - | - | - | - |
| 1777368258 | 16.11° C | 78% | 1019.8 hPa | - | - | - | - |
| 1777367057 | 15.56° C | 84% | 1019.3 hPa | - | - | - | - |
| 1777365857 | 16.67° C | 73% | 1018.7 hPa | - | - | - | - |
| 1777364657 | 16.67° C | 76% | 1018.4 hPa | - | - | - | - |
| 1777363456 | 17.22° C | 67% | 1018.3 hPa | - | - | - | - |
| 1777362256 | 17.22° C | 65% | 1018.1 hPa | - | - | - | - |
* Rain since midnight (hover to see other rain measurements)
** Current wind speed in m/s (hover to see current wind gust speed)